createdAt,value
2022-10-02T00:02:06.555Z,7.30
2022-10-02T00:04:41.493Z,6.30
2022-10-02T00:07:11.899Z,7.10
2022-10-02T00:09:46.910Z,7.30
2022-10-02T00:12:19.618Z,7.40
2022-10-02T00:14:51.966Z,7.50
2022-10-02T00:17:29.179Z,7.50
2022-10-02T00:19:58.114Z,7.70
2022-10-02T00:22:38.308Z,7.00
2022-10-02T00:25:17.269Z,7.30
2022-10-02T00:27:56.572Z,7.90
2022-10-02T00:30:24.717Z,7.40
2022-10-02T00:33:05.504Z,6.90
2022-10-02T00:36:03.276Z,7.20
2022-10-02T00:38:42.958Z,7.70
2022-10-02T00:41:56.510Z,7.60
2022-10-02T00:47:09.731Z,6.90
2022-10-02T00:50:01.779Z,7.00
2022-10-02T00:52:43.018Z,6.70
2022-10-02T00:55:31.560Z,6.20
2022-10-02T00:58:23.241Z,6.70
2022-10-02T01:01:02.493Z,6.40
2022-10-02T01:03:37.537Z,6.80
2022-10-02T01:06:07.304Z,6.90
2022-10-02T01:08:36.090Z,7.00
2022-10-02T01:11:05.085Z,7.40
2022-10-02T01:13:35.674Z,6.90
2022-10-02T01:16:05.940Z,6.90
2022-10-02T01:18:34.292Z,7.10
2022-10-02T01:21:10.333Z,6.80
2022-10-02T01:23:46.579Z,6.90
2022-10-02T01:26:14.863Z,6.10
2022-10-02T01:28:43.280Z,6.70
2022-10-02T01:31:13.780Z,6.20
2022-10-02T01:33:44.269Z,6.60
2022-10-02T01:36:14.679Z,5.50
2022-10-02T01:38:44.688Z,5.90
2022-10-02T01:41:13.048Z,5.90
2022-10-02T01:43:45.245Z,6.00
2022-10-02T01:46:26.269Z,6.80
2022-10-02T01:49:06.233Z,4.90
2022-10-02T01:51:56.345Z,4.50
2022-10-02T01:54:33.959Z,4.60
2022-10-02T01:57:09.295Z,4.30
2022-10-02T01:59:50.305Z,4.40
2022-10-02T02:02:28.747Z,3.90
2022-10-02T02:05:06.601Z,4.50
2022-10-02T02:07:46.963Z,3.50
2022-10-02T02:10:24.012Z,3.60
2022-10-02T02:12:59.195Z,2.90
2022-10-02T02:15:39.389Z,3.00
2022-10-02T02:18:11.800Z,3.00
2022-10-02T02:20:44.744Z,3.30
2022-10-02T02:23:17.912Z,3.40
2022-10-02T02:25:50.606Z,3.30
2022-10-02T02:28:21.326Z,3.40
2022-10-02T02:30:53.285Z,3.30
2022-10-02T02:33:27.413Z,3.00
2022-10-02T02:36:01.196Z,4.10
2022-10-02T02:38:32.724Z,2.90
2022-10-02T02:41:05.760Z,3.20
2022-10-02T02:43:40.785Z,3.30
2022-10-02T02:46:17.798Z,3.30
2022-10-02T02:48:50.045Z,3.60
2022-10-02T02:51:22.843Z,3.30
2022-10-02T02:56:22.491Z,2.90
2022-10-02T02:58:55.971Z,3.40
2022-10-02T03:01:24.214Z,3.40
2022-10-02T03:03:52.491Z,3.20
2022-10-02T03:06:31.504Z,3.20
2022-10-02T03:09:01.665Z,3.00
2022-10-02T03:11:41.628Z,3.30
2022-10-02T03:14:26.988Z,4.20
2022-10-02T03:17:06.738Z,3.00
2022-10-02T03:19:42.851Z,3.20
2022-10-02T03:22:19.861Z,3.20
2022-10-02T03:24:56.563Z,3.60
2022-10-02T03:27:34.949Z,3.00
2022-10-02T03:30:06.894Z,3.30
2022-10-02T03:32:36.161Z,3.50
2022-10-02T03:35:09.642Z,3.10
2022-10-02T03:37:40.802Z,3.80
2022-10-02T03:40:10.216Z,3.40
2022-10-02T03:42:39.757Z,3.10
2022-10-02T03:45:09.542Z,3.90
2022-10-02T03:47:37.690Z,3.60
2022-10-02T03:50:07.345Z,3.30
2022-10-02T03:52:35.554Z,3.40
2022-10-02T03:55:13.757Z,3.60
2022-10-02T03:57:46.128Z,3.60
2022-10-02T04:00:19.366Z,3.40
2022-10-02T04:02:53.077Z,3.50
2022-10-02T04:05:25.644Z,3.40
2022-10-02T04:07:58.509Z,3.70
2022-10-02T04:10:36.055Z,3.20
2022-10-02T04:13:11.544Z,3.60
2022-10-02T04:15:53.585Z,4.10
2022-10-02T04:18:26.116Z,3.90
2022-10-02T04:20:58.069Z,5.40
2022-10-02T04:23:32.149Z,4.30
2022-10-02T04:26:05.133Z,3.50
2022-10-02T04:28:39.827Z,4.10
2022-10-02T04:31:12.970Z,4.00
2022-10-02T04:33:41.818Z,4.00
2022-10-02T04:36:20.182Z,4.20
2022-10-02T04:39:07.054Z,3.90
2022-10-02T04:41:57.503Z,5.20
2022-10-02T04:44:43.824Z,4.80
2022-10-02T04:47:26.604Z,4.90
2022-10-02T04:50:08.331Z,5.70
2022-10-02T04:52:54.221Z,4.40
2022-10-02T04:55:37.412Z,5.60
2022-10-02T05:01:00.237Z,5.40
2022-10-02T05:03:41.584Z,4.90
2022-10-02T05:06:27.929Z,4.70
2022-10-02T05:09:11.461Z,5.30
2022-10-02T05:12:04.117Z,3.90
2022-10-02T05:15:02.411Z,5.20
2022-10-02T05:18:02.839Z,5.80
2022-10-02T05:20:59.133Z,4.20
2022-10-02T05:23:42.600Z,4.90
2022-10-02T05:26:27.942Z,4.10
2022-10-02T05:29:21.018Z,4.90
2022-10-02T05:32:03.293Z,4.90
2022-10-02T05:34:50.120Z,5.10
2022-10-02T05:37:38.251Z,4.30
2022-10-02T05:40:17.156Z,4.90
2022-10-02T05:42:53.189Z,4.80
2022-10-02T05:45:29.273Z,5.00
2022-10-02T05:48:06.023Z,4.80
2022-10-02T05:50:37.634Z,4.80
2022-10-02T05:53:18.201Z,6.50
2022-10-02T05:55:52.270Z,5.60
2022-10-02T05:58:28.306Z,5.10
2022-10-02T06:01:03.825Z,5.30
2022-10-02T06:03:40.322Z,5.90
2022-10-02T06:06:15.000Z,5.60
2022-10-02T06:08:49.380Z,5.30
2022-10-02T06:11:23.025Z,4.80
2022-10-02T06:13:55.227Z,5.90
2022-10-02T06:19:00.439Z,5.50
2022-10-02T06:21:36.361Z,4.60
2022-10-02T06:24:14.961Z,5.30
2022-10-02T06:26:48.690Z,4.80
2022-10-02T06:29:27.246Z,5.00
2022-10-02T06:32:07.654Z,5.30
2022-10-02T06:34:36.389Z,4.90
2022-10-02T06:37:27.164Z,5.00
2022-10-02T06:40:20.048Z,5.30
2022-10-02T06:42:57.847Z,4.90
2022-10-02T06:45:33.798Z,4.10
2022-10-02T06:48:07.036Z,5.90
2022-10-02T06:50:48.105Z,5.20
2022-10-02T06:53:38.571Z,4.90
2022-10-02T06:56:25.418Z,4.80
2022-10-02T06:59:03.973Z,5.70
2022-10-02T07:01:42.084Z,5.50
2022-10-02T07:04:25.391Z,5.10
2022-10-02T07:07:06.332Z,5.50
2022-10-02T07:09:47.989Z,5.10
2022-10-02T07:12:32.015Z,5.20
2022-10-02T07:15:21.537Z,4.40
2022-10-02T07:17:57.375Z,5.10
2022-10-02T07:20:35.098Z,5.50
2022-10-02T07:23:23.483Z,5.70
2022-10-02T07:26:15.985Z,5.20
2022-10-02T07:28:53.412Z,5.20
2022-10-02T07:31:39.733Z,5.50
2022-10-02T07:34:25.467Z,5.30
2022-10-02T07:37:04.787Z,4.60
2022-10-02T07:39:45.733Z,4.40
2022-10-02T07:42:34.911Z,5.50
2022-10-02T07:45:25.924Z,4.70
2022-10-02T07:48:21.797Z,5.80
2022-10-02T07:51:03.359Z,5.10
2022-10-02T07:53:40.140Z,5.50
2022-10-02T07:56:19.224Z,5.10
2022-10-02T07:58:51.419Z,6.00
2022-10-02T08:01:24.688Z,5.60
2022-10-02T08:03:56.727Z,5.70
2022-10-02T08:06:26.207Z,6.80
2022-10-02T08:08:58.023Z,5.60
2022-10-02T08:11:31.653Z,5.50
2022-10-02T08:14:06.765Z,5.30
2022-10-02T08:16:43.272Z,5.10
2022-10-02T08:19:17.064Z,4.50
2022-10-02T08:21:49.460Z,4.80
2022-10-02T08:24:23.801Z,4.60
2022-10-02T08:26:58.875Z,5.60
2022-10-02T08:29:39.472Z,5.10
2022-10-02T08:32:11.424Z,4.50
2022-10-02T08:34:41.236Z,5.00
2022-10-02T08:37:28.640Z,5.00
2022-10-02T08:40:32.504Z,5.70
2022-10-02T08:43:38.477Z,4.70
2022-10-02T08:46:48.150Z,4.50
2022-10-02T08:49:44.005Z,5.30
2022-10-02T08:52:41.339Z,5.30
2022-10-02T08:55:46.515Z,5.50
2022-10-02T08:58:44.291Z,4.60
2022-10-02T09:01:34.689Z,5.40
2022-10-02T09:04:37.483Z,5.50
2022-10-02T09:07:56.039Z,4.80
2022-10-02T09:10:49.934Z,5.50
2022-10-02T09:14:09.722Z,6.10
2022-10-02T09:17:01.107Z,5.00
2022-10-02T09:19:45.300Z,4.80
2022-10-02T09:22:37.125Z,5.50
2022-10-02T09:25:31.242Z,6.60
2022-10-02T09:28:30.718Z,4.90
2022-10-02T09:31:40.525Z,5.30
2022-10-02T09:34:47.206Z,4.40
2022-10-02T09:37:54.385Z,5.60
2022-10-02T09:40:40.112Z,6.40
2022-10-02T09:44:05.728Z,5.30
2022-10-02T09:46:52.165Z,4.20
2022-10-02T09:49:59.905Z,4.00
2022-10-02T09:53:08.721Z,3.80
2022-10-02T09:56:17.391Z,4.90
2022-10-02T09:59:28.588Z,4.70
2022-10-02T10:02:33.323Z,4.20
2022-10-02T10:05:22.790Z,4.60
2022-10-02T10:08:24.302Z,3.40
2022-10-02T10:11:20.194Z,3.70
2022-10-02T10:14:08.913Z,3.80
2022-10-02T10:17:10.414Z,3.20
2022-10-02T10:20:15.754Z,2.80
2022-10-02T10:23:20.415Z,2.40
2022-10-02T10:26:14.421Z,3.30
2022-10-02T10:29:08.838Z,2.80
2022-10-02T10:32:11.780Z,3.00
2022-10-02T10:35:23.189Z,2.70
2022-10-02T10:38:30.044Z,3.20
2022-10-02T10:41:25.296Z,2.50
2022-10-02T10:44:14.285Z,2.40
2022-10-02T10:47:05.470Z,2.30
2022-10-02T10:49:59.122Z,2.50
2022-10-02T10:52:41.388Z,2.20
2022-10-02T10:55:18.897Z,2.30
2022-10-02T10:58:08.095Z,3.20
2022-10-02T11:00:47.563Z,2.30
2022-10-02T11:03:47.789Z,2.20
2022-10-02T11:06:46.000Z,2.40
2022-10-02T11:09:47.185Z,3.10
2022-10-02T11:12:57.073Z,2.50
2022-10-02T11:15:55.684Z,2.30
2022-10-02T11:18:35.414Z,2.60
2022-10-02T11:21:21.997Z,2.80
2022-10-02T11:24:07.005Z,3.10
2022-10-02T11:27:01.473Z,2.60
2022-10-02T11:30:04.522Z,3.30
2022-10-02T11:33:06.514Z,2.70
2022-10-02T11:35:52.425Z,2.30
2022-10-02T11:38:41.585Z,2.40
2022-10-02T11:41:43.036Z,2.30
2022-10-02T11:44:27.759Z,2.50
2022-10-02T11:47:13.141Z,3.20
2022-10-02T11:50:01.717Z,2.20
2022-10-02T11:53:01.101Z,2.40
2022-10-02T11:55:43.151Z,7.20
2022-10-02T11:58:18.669Z,2.90
2022-10-02T12:01:10.526Z,3.00
2022-10-02T12:03:53.291Z,2.60
2022-10-02T12:06:39.752Z,2.40
2022-10-02T12:09:17.210Z,2.90
2022-10-02T12:11:59.140Z,2.30
2022-10-02T12:14:38.046Z,2.30
2022-10-02T12:17:18.529Z,2.20
2022-10-02T12:20:18.944Z,3.60
2022-10-02T12:23:15.423Z,3.00
2022-10-02T12:26:08.691Z,2.30
2022-10-02T12:28:46.664Z,3.00
2022-10-02T12:31:21.381Z,3.10
2022-10-02T12:34:00.567Z,2.30
2022-10-02T12:36:46.394Z,2.60
2022-10-02T12:39:33.106Z,3.70
2022-10-02T12:42:29.241Z,3.00
2022-10-02T12:45:33.739Z,3.40
2022-10-02T12:48:22.552Z,2.60
2022-10-02T12:51:10.778Z,2.40
2022-10-02T12:54:19.118Z,2.30
2022-10-02T12:57:38.774Z,2.40
2022-10-02T13:00:14.374Z,2.50
2022-10-02T13:03:05.220Z,2.40
2022-10-02T13:05:50.639Z,2.80
2022-10-02T13:08:27.926Z,2.40
2022-10-02T13:11:06.661Z,2.90
2022-10-02T13:14:08.235Z,3.30
2022-10-02T13:16:59.877Z,2.60
2022-10-02T13:19:33.833Z,2.70
2022-10-02T13:22:10.336Z,2.90
2022-10-02T13:24:54.188Z,2.20
2022-10-02T13:27:37.368Z,3.40
2022-10-02T13:30:16.345Z,2.80
2022-10-02T13:33:05.325Z,2.40
2022-10-02T13:35:46.771Z,2.70
2022-10-02T13:38:39.731Z,4.70
2022-10-02T13:41:21.627Z,3.10
2022-10-02T13:44:11.551Z,2.40
2022-10-02T13:46:55.428Z,1.90
2022-10-02T13:49:38.142Z,2.10
2022-10-02T13:52:19.886Z,2.50
2022-10-02T13:55:12.510Z,2.30
2022-10-02T13:57:55.184Z,1.60
2022-10-02T14:00:41.747Z,1.70
2022-10-02T14:03:19.300Z,1.10
2022-10-02T14:05:57.761Z,1.70
2022-10-02T14:08:42.218Z,1.80
2022-10-02T14:11:21.595Z,1.70
2022-10-02T14:14:03.717Z,1.70
2022-10-02T14:16:52.790Z,2.30
2022-10-02T14:19:47.602Z,1.90
2022-10-02T14:22:40.686Z,3.00
2022-10-02T14:25:25.838Z,2.10
2022-10-02T14:28:27.678Z,2.40
2022-10-02T14:31:22.487Z,3.20
2022-10-02T14:34:17.806Z,2.10
2022-10-02T14:36:58.179Z,2.30
2022-10-02T14:39:37.555Z,2.10
2022-10-02T14:42:25.488Z,3.20
2022-10-02T14:45:20.568Z,2.70
2022-10-02T14:48:09.945Z,2.70
2022-10-02T14:50:54.425Z,2.70
2022-10-02T14:53:53.187Z,2.60
2022-10-02T14:56:46.349Z,2.00
2022-10-02T15:02:00.865Z,1.70
2022-10-02T15:04:37.805Z,1.80
2022-10-02T15:07:10.817Z,2.50
2022-10-02T15:10:01.170Z,2.40
2022-10-02T15:12:45.090Z,2.30
2022-10-02T15:15:19.298Z,1.90
2022-10-02T15:18:14.140Z,1.10
2022-10-02T15:20:58.816Z,1.30
2022-10-02T15:23:45.044Z,1.00
2022-10-02T15:26:32.214Z,1.50
2022-10-02T15:29:20.527Z,1.70
2022-10-02T15:32:20.370Z,1.30
2022-10-02T15:34:56.564Z,1.90
2022-10-02T15:37:32.178Z,2.10
2022-10-02T15:40:17.167Z,1.40
2022-10-02T15:42:50.812Z,2.10
2022-10-02T15:45:42.805Z,1.40
2022-10-02T15:48:35.428Z,2.00
2022-10-02T15:51:18.838Z,1.80
2022-10-02T15:54:06.095Z,1.80
2022-10-02T15:56:51.572Z,2.40
2022-10-02T15:59:42.896Z,1.90
2022-10-02T16:02:32.462Z,2.10
2022-10-02T16:05:15.152Z,2.40
2022-10-02T16:08:11.165Z,2.20
2022-10-02T16:10:56.340Z,2.30
2022-10-02T16:13:44.801Z,2.80
2022-10-02T16:16:46.078Z,3.10
2022-10-02T16:19:26.657Z,2.60
2022-10-02T16:22:18.809Z,2.70
2022-10-02T16:25:12.077Z,3.00
2022-10-02T16:30:20.914Z,3.10
2022-10-02T16:33:18.013Z,3.00
2022-10-02T16:36:03.746Z,2.80
2022-10-02T16:38:46.592Z,3.50
2022-10-02T16:41:36.206Z,3.00
2022-10-02T16:44:28.426Z,3.40
2022-10-02T16:47:05.075Z,4.20
2022-10-02T16:49:45.028Z,3.40
2022-10-02T16:52:21.994Z,3.10
2022-10-02T16:54:58.666Z,3.30
2022-10-02T16:57:53.593Z,3.10
2022-10-02T17:00:29.217Z,3.20
2022-10-02T17:03:05.469Z,3.30
2022-10-02T17:05:45.051Z,3.60
2022-10-02T17:08:20.315Z,3.10
2022-10-02T17:11:06.286Z,3.50
2022-10-02T17:13:47.502Z,3.70
2022-10-02T17:16:21.502Z,3.80
2022-10-02T17:18:55.993Z,3.60
2022-10-02T17:21:29.020Z,4.50
2022-10-02T17:24:21.569Z,4.90
2022-10-02T17:27:03.313Z,7.10
2022-10-02T17:29:39.860Z,4.60
2022-10-02T17:32:09.464Z,4.00
2022-10-02T17:34:48.765Z,2.80
2022-10-02T17:37:44.781Z,2.80
2022-10-02T17:40:17.859Z,2.80
2022-10-02T17:42:54.637Z,2.50
2022-10-02T17:45:31.910Z,2.50
2022-10-02T17:48:26.106Z,2.70
2022-10-02T17:51:48.176Z,2.90
2022-10-02T17:54:55.329Z,2.50
2022-10-02T17:57:44.376Z,2.50
2022-10-02T18:00:16.945Z,2.70
2022-10-02T18:05:31.681Z,5.40
2022-10-02T18:08:13.739Z,7.50
2022-10-02T18:10:56.910Z,7.20
2022-10-02T18:13:41.837Z,4.50
2022-10-02T18:16:24.225Z,4.50
2022-10-02T18:19:24.285Z,4.80
2022-10-02T18:22:09.759Z,5.20
2022-10-02T18:24:56.119Z,4.70
2022-10-02T18:27:42.132Z,4.70
2022-10-02T18:30:16.438Z,3.90
2022-10-02T18:33:02.013Z,3.70
2022-10-02T18:35:39.698Z,4.40
2022-10-02T18:38:16.923Z,3.90
2022-10-02T18:40:54.287Z,4.00
2022-10-02T18:43:35.261Z,5.10
2022-10-02T18:46:17.402Z,4.40
2022-10-02T18:49:07.085Z,4.70
2022-10-02T18:52:02.534Z,5.10
2022-10-02T18:54:44.570Z,5.60
2022-10-02T18:57:29.333Z,5.40
2022-10-02T19:00:12.910Z,4.20
2022-10-02T19:02:55.792Z,4.50
2022-10-02T19:05:32.993Z,3.40
2022-10-02T19:08:17.086Z,3.80
2022-10-02T19:10:47.506Z,7.40
2022-10-02T19:13:26.435Z,8.10
2022-10-02T19:15:57.817Z,6.50
2022-10-02T19:18:28.231Z,6.00
2022-10-02T19:21:02.574Z,6.70
2022-10-02T19:23:35.091Z,5.80
2022-10-02T19:26:15.436Z,6.00
2022-10-02T19:28:47.193Z,6.90
2022-10-02T19:31:22.338Z,6.50
2022-10-02T19:33:53.826Z,6.30
2022-10-02T19:36:26.241Z,6.50
2022-10-02T19:39:00.730Z,4.60
2022-10-02T19:41:35.029Z,6.70
2022-10-02T19:44:06.447Z,5.40
2022-10-02T19:46:40.796Z,5.80
2022-10-02T19:49:18.003Z,6.50
2022-10-02T19:51:47.623Z,5.70
2022-10-02T19:54:20.669Z,5.80
2022-10-02T19:56:53.230Z,5.30
2022-10-02T19:59:27.724Z,5.70
2022-10-02T20:02:00.306Z,6.00
2022-10-02T20:04:31.242Z,4.90
2022-10-02T20:07:01.404Z,5.40
2022-10-02T20:09:35.613Z,5.20
2022-10-02T20:12:11.877Z,5.00
2022-10-02T20:14:43.968Z,5.30
2022-10-02T20:17:13.193Z,4.90
2022-10-02T20:19:51.202Z,5.40
2022-10-02T20:22:30.028Z,5.00
2022-10-02T20:25:03.547Z,5.30
2022-10-02T20:27:41.213Z,4.60
2022-10-02T20:30:16.057Z,5.00
2022-10-02T20:32:54.023Z,4.60
2022-10-02T20:35:29.899Z,4.30
2022-10-02T20:38:01.464Z,3.60
2022-10-02T20:40:35.905Z,3.00
2022-10-02T20:43:11.034Z,3.60
2022-10-02T20:45:45.275Z,3.30
2022-10-02T20:49:06.913Z,3.70
2022-10-02T20:51:57.325Z,3.90
2022-10-02T20:54:45.952Z,3.40
2022-10-02T20:58:00.836Z,3.90
2022-10-02T21:00:39.087Z,3.60
2022-10-02T21:03:37.138Z,3.30
2022-10-02T21:06:37.388Z,4.10
2022-10-02T21:09:41.810Z,2.90
2022-10-02T21:12:35.611Z,3.80
2022-10-02T21:15:45.902Z,3.50
2022-10-02T21:18:53.398Z,3.90
2022-10-02T21:21:53.814Z,3.60
2022-10-02T21:24:49.810Z,3.30
2022-10-02T21:28:00.611Z,3.00
2022-10-02T21:30:37.373Z,3.00
2022-10-02T21:33:14.347Z,3.00
2022-10-02T21:35:52.642Z,3.00
2022-10-02T21:39:07.306Z,2.70
2022-10-02T21:42:16.967Z,2.50
2022-10-02T21:45:23.288Z,2.40
2022-10-02T21:48:26.354Z,3.10
2022-10-02T21:51:47.398Z,2.60
2022-10-02T21:54:50.697Z,3.20
2022-10-02T21:58:09.107Z,2.40
2022-10-02T22:00:53.204Z,2.90
2022-10-02T22:03:57.848Z,2.00
2022-10-02T22:06:37.154Z,2.60
2022-10-02T22:09:26.007Z,2.90
2022-10-02T22:12:11.783Z,2.00
2022-10-02T22:14:45.512Z,2.60
2022-10-02T22:17:24.565Z,2.60
2022-10-02T22:20:10.450Z,2.50
2022-10-02T22:22:51.552Z,2.30
2022-10-02T22:25:36.024Z,2.60
2022-10-02T22:28:16.070Z,1.70
2022-10-02T22:31:03.333Z,2.20
2022-10-02T22:33:53.486Z,2.60
2022-10-02T22:36:45.260Z,2.30
2022-10-02T22:39:22.010Z,2.60
2022-10-02T22:41:56.681Z,1.90
2022-10-02T22:44:29.441Z,2.40
2022-10-02T22:49:36.719Z,2.90
2022-10-02T22:52:11.653Z,2.40
2022-10-02T22:54:46.359Z,2.40
2022-10-02T22:57:25.797Z,2.20
2022-10-02T23:00:02.770Z,2.50
2022-10-02T23:02:37.011Z,2.50
2022-10-02T23:05:12.719Z,3.10
2022-10-02T23:07:46.675Z,2.20
2022-10-02T23:10:25.069Z,2.40
2022-10-02T23:13:02.574Z,3.00
2022-10-02T23:15:41.100Z,3.40
2022-10-02T23:18:20.849Z,3.00
2022-10-02T23:20:53.842Z,3.00
2022-10-02T23:23:29.024Z,3.40
2022-10-02T23:26:04.291Z,4.20
2022-10-02T23:28:40.401Z,4.90
2022-10-02T23:31:20.054Z,3.10
2022-10-02T23:33:56.823Z,3.80
2022-10-02T23:36:31.756Z,4.50
2022-10-02T23:39:06.895Z,3.20
2022-10-02T23:41:46.429Z,4.30
2022-10-02T23:44:31.369Z,4.20
2022-10-02T23:47:13.984Z,3.60
2022-10-02T23:49:46.907Z,4.10
2022-10-02T23:52:40.836Z,4.00
2022-10-02T23:55:31.189Z,4.00
2022-10-02T23:58:23.355Z,4.60
